createdAt,value
2023-03-26T00:00:08.421Z,29.1760
2023-03-26T00:00:19.492Z,29.1860
2023-03-26T00:00:30.540Z,29.1970
2023-03-26T00:00:41.562Z,29.1930
2023-03-26T00:00:52.612Z,29.1660
2023-03-26T00:01:03.663Z,29.1660
2023-03-26T00:01:14.737Z,29.1930
2023-03-26T00:01:25.832Z,29.1770
2023-03-26T00:01:37.090Z,29.1610
2023-03-26T00:01:48.167Z,29.1660
2023-03-26T00:01:59.259Z,29.1660
2023-03-26T00:02:10.362Z,29.1540
2023-03-26T00:02:21.522Z,29.1650
2023-03-26T00:02:32.632Z,29.1430
2023-03-26T00:02:43.741Z,29.1490
2023-03-26T00:02:54.860Z,29.1500
2023-03-26T00:03:05.919Z,29.1610
2023-03-26T00:03:17.021Z,29.1450
2023-03-26T00:03:28.119Z,29.1450
2023-03-26T00:03:39.189Z,29.1540
2023-03-26T00:03:50.235Z,29.1810
2023-03-26T00:04:01.362Z,29.1810
2023-03-26T00:04:12.405Z,29.1920
2023-03-26T00:04:23.458Z,29.1860
2023-03-26T00:04:34.662Z,29.1700
2023-03-26T00:04:45.712Z,29.1920
2023-03-26T00:04:56.774Z,29.1860
2023-03-26T00:05:07.866Z,29.1920
2023-03-26T00:05:18.928Z,29.2080
2023-03-26T00:05:30.000Z,29.2030
2023-03-26T00:05:41.077Z,29.2080
2023-03-26T00:05:52.438Z,29.1860
2023-03-26T00:06:03.836Z,29.2220
2023-03-26T00:06:14.885Z,29.2280
2023-03-26T00:06:25.953Z,29.2060
2023-03-26T00:06:36.988Z,29.2110
2023-03-26T00:06:48.040Z,29.2170
2023-03-26T00:06:59.104Z,29.2220
2023-03-26T00:07:10.210Z,29.2110
2023-03-26T00:07:21.255Z,29.1920
2023-03-26T00:07:32.314Z,29.1880
2023-03-26T00:07:43.363Z,29.1770
2023-03-26T00:07:54.423Z,29.1610
2023-03-26T00:08:05.508Z,29.1650
2023-03-26T00:08:16.581Z,29.1860
2023-03-26T00:08:27.641Z,29.1970
2023-03-26T00:08:38.692Z,29.2080
2023-03-26T00:08:49.744Z,29.1970
2023-03-26T00:09:00.840Z,29.2060
2023-03-26T00:09:11.873Z,29.2170
2023-03-26T00:09:22.907Z,29.2330
2023-03-26T00:09:33.970Z,29.2280
2023-03-26T00:09:45.008Z,29.2280
2023-03-26T00:09:56.082Z,29.1970
2023-03-26T00:10:07.152Z,29.1820
2023-03-26T00:10:18.221Z,29.1720
2023-03-26T00:10:29.266Z,29.1770
2023-03-26T00:10:40.339Z,29.1810
2023-03-26T00:10:51.388Z,29.1770
2023-03-26T00:11:02.422Z,29.1770
2023-03-26T00:11:13.503Z,29.1560
2023-03-26T00:11:24.529Z,29.1500
2023-03-26T00:11:35.599Z,29.1560
2023-03-26T00:11:46.630Z,29.1610
2023-03-26T00:11:57.730Z,29.1660
2023-03-26T00:12:08.785Z,29.1660
2023-03-26T00:12:19.844Z,29.1660
2023-03-26T00:12:30.891Z,29.1540
2023-03-26T00:12:41.952Z,29.1430
2023-03-26T00:12:52.984Z,29.1310
2023-03-26T00:13:04.084Z,29.1210
2023-03-26T00:13:15.165Z,29.1430
2023-03-26T00:13:26.340Z,29.1370
2023-03-26T00:13:37.403Z,29.1430
2023-03-26T00:13:48.429Z,29.1230
2023-03-26T00:13:59.468Z,29.1450
2023-03-26T00:14:10.517Z,29.1450
2023-03-26T00:14:21.640Z,29.1390
2023-03-26T00:14:32.710Z,29.1450
2023-03-26T00:14:43.824Z,29.1650
2023-03-26T00:14:54.870Z,29.1490
2023-03-26T00:15:05.921Z,29.1310
2023-03-26T00:15:16.978Z,29.1370
2023-03-26T00:15:28.032Z,29.1310
2023-03-26T00:15:39.059Z,29.1310
2023-03-26T00:15:50.089Z,29.1370
2023-03-26T00:16:01.162Z,29.1260
2023-03-26T00:16:12.250Z,29.1430
2023-03-26T00:16:23.295Z,29.1310
2023-03-26T00:16:34.409Z,29.1310
2023-03-26T00:16:45.520Z,29.1310
2023-03-26T00:16:56.585Z,29.1260
2023-03-26T00:17:07.609Z,29.1280
2023-03-26T00:17:18.674Z,29.1450
2023-03-26T00:17:29.740Z,29.1500
2023-03-26T00:17:40.801Z,29.1650
2023-03-26T00:17:51.970Z,29.1900
2023-03-26T00:18:03.126Z,29.2010
2023-03-26T00:18:14.255Z,29.2100
2023-03-26T00:18:25.301Z,29.2310
2023-03-26T00:18:36.369Z,29.2260
2023-03-26T00:18:47.428Z,29.2480
2023-03-26T00:18:58.450Z,29.2440
2023-03-26T00:19:09.491Z,29.2540
2023-03-26T00:19:20.571Z,29.2530
2023-03-26T00:19:31.614Z,29.2480
2023-03-26T00:19:42.680Z,29.2370
2023-03-26T00:19:53.739Z,29.2060
2023-03-26T00:20:04.886Z,29.2100
2023-03-26T00:20:15.981Z,29.2100
2023-03-26T00:20:27.018Z,29.2210
2023-03-26T00:20:38.064Z,29.2310
2023-03-26T00:20:49.096Z,29.2370
2023-03-26T00:21:00.131Z,29.2370
2023-03-26T00:21:11.163Z,29.2210
2023-03-26T00:21:22.220Z,29.2170
2023-03-26T00:21:33.261Z,29.2010
2023-03-26T00:21:44.330Z,29.2010
2023-03-26T00:21:55.382Z,29.2080
2023-03-26T00:22:06.446Z,29.1920
2023-03-26T00:22:17.489Z,29.1950
2023-03-26T00:22:28.559Z,29.2260
2023-03-26T00:22:39.613Z,29.2480
2023-03-26T00:22:50.649Z,29.2590
2023-03-26T00:23:01.724Z,29.2530
2023-03-26T00:23:12.783Z,29.2530
2023-03-26T00:23:23.911Z,29.2480
2023-03-26T00:23:34.988Z,29.2370
2023-03-26T00:23:46.049Z,29.2260
2023-03-26T00:23:57.077Z,29.2280
2023-03-26T00:24:08.127Z,29.2170
2023-03-26T00:24:19.180Z,29.2110
2023-03-26T00:24:30.243Z,29.2030
2023-03-26T00:24:41.288Z,29.1970
2023-03-26T00:24:52.332Z,29.1920
2023-03-26T00:25:03.401Z,29.1860
2023-03-26T00:25:14.476Z,29.1860
2023-03-26T00:25:25.523Z,29.1700
2023-03-26T00:25:36.576Z,29.1720
2023-03-26T00:25:49.526Z,29.1700
2023-03-26T00:26:00.644Z,29.2360
2023-03-26T00:26:11.671Z,29.2080
2023-03-26T00:26:22.762Z,29.2030
2023-03-26T00:26:33.946Z,29.1810
2023-03-26T00:26:45.102Z,29.2110
2023-03-26T00:26:56.181Z,29.2060
2023-03-26T00:27:07.210Z,29.2110
2023-03-26T00:27:18.283Z,29.2170
2023-03-26T00:27:29.366Z,29.2310
2023-03-26T00:27:40.401Z,29.2480
2023-03-26T00:27:51.465Z,29.2310
2023-03-26T00:28:02.530Z,29.2370
2023-03-26T00:28:13.597Z,29.2370
2023-03-26T00:28:24.682Z,29.2370
2023-03-26T00:28:35.736Z,29.2480
2023-03-26T00:28:46.778Z,29.2480
2023-03-26T00:28:57.831Z,29.2480
2023-03-26T00:29:08.876Z,29.2440
2023-03-26T00:29:19.939Z,29.2330
2023-03-26T00:29:30.994Z,29.2170
2023-03-26T00:29:42.042Z,29.2280
2023-03-26T00:29:53.114Z,29.2170
2023-03-26T00:30:04.157Z,29.2330
2023-03-26T00:30:15.214Z,29.2440
2023-03-26T00:30:26.335Z,29.2170
2023-03-26T00:30:37.400Z,29.2310
2023-03-26T00:30:48.455Z,29.2080
2023-03-26T00:30:59.607Z,29.1860
2023-03-26T00:31:10.749Z,29.1920
2023-03-26T00:31:21.865Z,29.2030
2023-03-26T00:31:32.907Z,29.2280
2023-03-26T00:31:43.962Z,29.2170
2023-03-26T00:31:55.022Z,29.2220
2023-03-26T00:32:06.075Z,29.2280
2023-03-26T00:32:17.141Z,29.2280
2023-03-26T00:32:28.216Z,29.2280
2023-03-26T00:32:39.312Z,29.2280
2023-03-26T00:32:53.782Z,29.2170
2023-03-26T00:33:05.101Z,29.3240
2023-03-26T00:33:16.194Z,29.2720
2023-03-26T00:33:27.308Z,29.2470
2023-03-26T00:33:38.494Z,29.2130
2023-03-26T00:33:49.603Z,29.2000
2023-03-26T00:34:00.635Z,29.2110
2023-03-26T00:34:11.696Z,29.2000
2023-03-26T00:34:22.740Z,29.1930
2023-03-26T00:34:33.802Z,29.2000
2023-03-26T00:34:44.898Z,29.2050
2023-03-26T00:34:55.932Z,29.1930
2023-03-26T00:35:06.963Z,29.1820
2023-03-26T00:35:18.044Z,29.1970
2023-03-26T00:35:29.170Z,29.1810
2023-03-26T00:35:40.222Z,29.1760
2023-03-26T00:35:51.315Z,29.1700
2023-03-26T00:36:04.414Z,29.1540
2023-03-26T00:36:15.734Z,29.2080
2023-03-26T00:36:27.134Z,29.1760
2023-03-26T00:36:38.381Z,29.1490
2023-03-26T00:36:49.446Z,29.1370
2023-03-26T00:37:00.472Z,29.1430
2023-03-26T00:37:11.514Z,29.1310
2023-03-26T00:37:22.572Z,29.1290
2023-03-26T00:37:33.634Z,29.1110
2023-03-26T00:37:44.703Z,29.1000
2023-03-26T00:37:55.765Z,29.1260
2023-03-26T00:38:06.850Z,29.1260
2023-03-26T00:38:17.883Z,29.1540
2023-03-26T00:38:29.004Z,29.1540
2023-03-26T00:38:40.053Z,29.1700
2023-03-26T00:38:51.111Z,29.1610
2023-03-26T00:39:02.169Z,29.1770
2023-03-26T00:39:13.210Z,29.1920
2023-03-26T00:39:24.290Z,29.1920
2023-03-26T00:39:35.345Z,29.1970
2023-03-26T00:39:46.395Z,29.2080
2023-03-26T00:39:57.408Z,29.1930
2023-03-26T00:40:12.388Z,29.3040
2023-03-26T00:40:23.438Z,29.2470
2023-03-26T00:40:34.471Z,29.2250
2023-03-26T00:40:45.527Z,29.2110
2023-03-26T00:40:56.566Z,29.1880
2023-03-26T00:41:07.625Z,29.1880
2023-03-26T00:41:18.704Z,29.1810
2023-03-26T00:41:29.788Z,29.1870
2023-03-26T00:41:40.846Z,29.1810
2023-03-26T00:41:51.907Z,29.1870
2023-03-26T00:42:02.957Z,29.1870
2023-03-26T00:42:14.015Z,29.1770
2023-03-26T00:42:25.084Z,29.1880
2023-03-26T00:42:36.114Z,29.1920
2023-03-26T00:42:47.178Z,29.1970
2023-03-26T00:42:58.252Z,29.2050
2023-03-26T00:43:09.286Z,29.2000
2023-03-26T00:43:20.334Z,29.2110
2023-03-26T00:43:31.436Z,29.1930
2023-03-26T00:43:42.488Z,29.2050
2023-03-26T00:43:53.565Z,29.1970
2023-03-26T00:44:04.619Z,29.2190
2023-03-26T00:44:15.660Z,29.2330
2023-03-26T00:44:26.716Z,29.2390
2023-03-26T00:44:37.776Z,29.2420
2023-03-26T00:44:48.861Z,29.2360
2023-03-26T00:44:59.905Z,29.2250
2023-03-26T00:45:10.945Z,29.2130
2023-03-26T00:45:22.008Z,29.2160
2023-03-26T00:45:33.101Z,29.2110
2023-03-26T00:45:44.176Z,29.2210
2023-03-26T00:45:55.438Z,29.1880
2023-03-26T00:46:06.777Z,29.2050
2023-03-26T00:46:17.922Z,29.1970
2023-03-26T00:46:29.089Z,29.1920
2023-03-26T00:46:40.258Z,29.1760
2023-03-26T00:46:51.391Z,29.1540
2023-03-26T00:47:02.433Z,29.1560
2023-03-26T00:47:13.484Z,29.1430
2023-03-26T00:47:24.571Z,29.1540
2023-03-26T00:47:35.640Z,29.1590
2023-03-26T00:47:46.742Z,29.1590
2023-03-26T00:47:57.850Z,29.1490
2023-03-26T00:48:08.964Z,29.1700
2023-03-26T00:48:20.879Z,29.1650
2023-03-26T00:48:44.564Z,29.2420
2023-03-26T00:48:49.945Z,29.3360
2023-03-26T00:49:00.968Z,29.2960
2023-03-26T00:49:11.996Z,29.2360
2023-03-26T00:49:23.064Z,29.2110
2023-03-26T00:49:34.107Z,29.2030
2023-03-26T00:49:45.168Z,29.1870
2023-03-26T00:49:56.223Z,29.1760
2023-03-26T00:50:07.329Z,29.1500
2023-03-26T00:50:18.390Z,29.1450
2023-03-26T00:50:29.482Z,29.1340
2023-03-26T00:50:40.491Z,29.1290
2023-03-26T00:50:51.554Z,29.1290
2023-03-26T00:51:02.618Z,29.1390
2023-03-26T00:51:13.678Z,29.1340
2023-03-26T00:51:24.757Z,29.1230
2023-03-26T00:51:35.774Z,29.1110
2023-03-26T00:51:46.820Z,29.1080
2023-03-26T00:51:57.876Z,29.1140
2023-03-26T00:52:08.927Z,29.1190
2023-03-26T00:52:19.998Z,29.1140
2023-03-26T00:52:31.067Z,29.1080
2023-03-26T00:52:42.127Z,29.1100
2023-03-26T00:52:53.200Z,29.0830
2023-03-26T00:53:04.241Z,29.0880
2023-03-26T00:53:15.298Z,29.0880
2023-03-26T00:53:26.378Z,29.0980
2023-03-26T00:53:37.457Z,29.1060
2023-03-26T00:53:48.506Z,29.1150
2023-03-26T00:53:59.548Z,29.1490
2023-03-26T00:54:10.596Z,29.1490
2023-03-26T00:54:21.653Z,29.1590
2023-03-26T00:54:32.717Z,29.1760
2023-03-26T00:54:43.778Z,29.1650
2023-03-26T00:54:54.845Z,29.1760
2023-03-26T00:55:05.894Z,29.1820
2023-03-26T00:55:16.961Z,29.2000
2023-03-26T00:55:27.990Z,29.2000
2023-03-26T00:55:39.053Z,29.2050
2023-03-26T00:55:50.118Z,29.2000
2023-03-26T00:56:01.188Z,29.2050
2023-03-26T00:56:12.248Z,29.2210
2023-03-26T00:56:23.312Z,29.2110
2023-03-26T00:56:34.398Z,29.2050
2023-03-26T00:56:45.449Z,29.2000
2023-03-26T00:56:56.599Z,29.2050
2023-03-26T00:57:07.633Z,29.2000
2023-03-26T00:57:25.818Z,29.2050
2023-03-26T00:57:36.359Z,29.3510
2023-03-26T00:57:47.563Z,29.3290
2023-03-26T00:57:58.612Z,29.2900
2023-03-26T00:58:09.661Z,29.2430
2023-03-26T00:58:20.702Z,29.2050
2023-03-26T00:58:31.771Z,29.2130
2023-03-26T00:58:42.839Z,29.2130
2023-03-26T00:58:53.877Z,29.2050
2023-03-26T00:59:04.931Z,29.2200
2023-03-26T00:59:16.002Z,29.2080
2023-03-26T00:59:27.018Z,29.2000
2023-03-26T00:59:38.110Z,29.2110
2023-03-26T00:59:49.139Z,29.2160
2023-03-26T01:00:00.224Z,29.2270
2023-03-26T01:00:11.264Z,29.2250
2023-03-26T01:00:22.308Z,29.2310
2023-03-26T01:00:33.358Z,29.2490
2023-03-26T01:00:46.403Z,29.2670
2023-03-26T01:00:57.928Z,29.3570
2023-03-26T01:01:09.050Z,29.3520
2023-03-26T01:01:20.149Z,29.3460
2023-03-26T01:01:31.227Z,29.3300
2023-03-26T01:01:42.383Z,29.3140
2023-03-26T01:01:53.494Z,29.3320
2023-03-26T01:02:04.582Z,29.3150
2023-03-26T01:02:15.658Z,29.3040
2023-03-26T01:02:26.789Z,29.2990
2023-03-26T01:02:37.917Z,29.2850
2023-03-26T01:02:49.119Z,29.2790
2023-03-26T01:03:00.246Z,29.2590
2023-03-26T01:03:12.959Z,29.2480
2023-03-26T01:03:28.478Z,29.3620
2023-03-26T01:03:39.632Z,29.3200
2023-03-26T01:04:04.766Z,29.2690
2023-03-26T01:04:09.079Z,29.3860
2023-03-26T01:04:20.739Z,29.3950
2023-03-26T01:04:32.267Z,29.3510
2023-03-26T01:04:43.594Z,29.3240
2023-03-26T01:04:54.705Z,29.2960
2023-03-26T01:05:05.814Z,29.3080
2023-03-26T01:05:16.895Z,29.2960
2023-03-26T01:05:28.031Z,29.3150
2023-03-26T01:05:39.073Z,29.3260
2023-03-26T01:05:50.122Z,29.3260
2023-03-26T01:06:01.166Z,29.3260
2023-03-26T01:06:12.233Z,29.3320
2023-03-26T01:06:23.296Z,29.3300
2023-03-26T01:06:34.334Z,29.3410
2023-03-26T01:06:45.427Z,29.3430
2023-03-26T01:06:56.459Z,29.3380
2023-03-26T01:07:07.548Z,29.3320
2023-03-26T01:07:18.608Z,29.3460
2023-03-26T01:07:29.678Z,29.3520
2023-03-26T01:07:40.774Z,29.3640
2023-03-26T01:07:51.799Z,29.3520
2023-03-26T01:08:02.852Z,29.3520
2023-03-26T01:08:13.908Z,29.3460
2023-03-26T01:08:25.053Z,29.3460
2023-03-26T01:08:36.089Z,29.3640
2023-03-26T01:08:47.194Z,29.3750
2023-03-26T01:08:58.258Z,29.3640
2023-03-26T01:09:09.310Z,29.3700
2023-03-26T01:09:20.346Z,29.3910
2023-03-26T01:09:31.413Z,29.4170
2023-03-26T01:09:42.485Z,29.4320
2023-03-26T01:09:53.582Z,29.4470
2023-03-26T01:10:04.648Z,29.4780
2023-03-26T01:10:15.687Z,29.4730
2023-03-26T01:10:26.714Z,29.4840
2023-03-26T01:10:37.758Z,29.4840
2023-03-26T01:10:48.817Z,29.4840
2023-03-26T01:10:59.863Z,29.4840
2023-03-26T01:11:10.922Z,29.4790
2023-03-26T01:11:21.981Z,29.4590
2023-03-26T01:11:33.041Z,29.4390
2023-03-26T01:11:44.246Z,29.4340
2023-03-26T01:11:55.293Z,29.4280
2023-03-26T01:12:06.338Z,29.4280
2023-03-26T01:12:17.388Z,29.4390
2023-03-26T01:12:28.445Z,29.4320
2023-03-26T01:12:39.507Z,29.4480
2023-03-26T01:12:50.528Z,29.4470
2023-03-26T01:13:01.590Z,29.4630
2023-03-26T01:13:12.650Z,29.4670
2023-03-26T01:13:23.711Z,29.4730
2023-03-26T01:13:34.759Z,29.4780
2023-03-26T01:13:45.815Z,29.4890
2023-03-26T01:13:56.925Z,29.4850
2023-03-26T01:14:07.966Z,29.4790
2023-03-26T01:14:19.031Z,29.4690
2023-03-26T01:14:30.092Z,29.4840
2023-03-26T01:14:41.146Z,29.4780
2023-03-26T01:14:52.214Z,29.4890
2023-03-26T01:15:03.364Z,29.4900
2023-03-26T01:15:14.376Z,29.4730
2023-03-26T01:15:25.378Z,29.4510
2023-03-26T01:15:36.451Z,29.4370
2023-03-26T01:15:47.543Z,29.4310
2023-03-26T01:15:58.626Z,29.4260
2023-03-26T01:16:09.778Z,29.4310
2023-03-26T01:16:21.557Z,29.4510
2023-03-26T01:16:32.638Z,29.4460
2023-03-26T01:16:43.704Z,29.4390
2023-03-26T01:16:54.734Z,29.4390
2023-03-26T01:17:05.767Z,29.4510
2023-03-26T01:17:16.810Z,29.4420
2023-03-26T01:17:27.922Z,29.4200
2023-03-26T01:17:38.982Z,29.4200
2023-03-26T01:17:50.043Z,29.4080
2023-03-26T01:18:01.100Z,29.4140
2023-03-26T01:18:12.178Z,29.3970
2023-03-26T01:18:23.208Z,29.4080
2023-03-26T01:18:34.256Z,29.4260
2023-03-26T01:18:45.326Z,29.4140
2023-03-26T01:18:56.391Z,29.4140
2023-03-26T01:19:07.484Z,29.4080
2023-03-26T01:19:18.538Z,29.4030
2023-03-26T01:19:29.633Z,29.4260
2023-03-26T01:19:40.759Z,29.4460
2023-03-26T01:19:51.809Z,29.4340
2023-03-26T01:20:02.866Z,29.4620
2023-03-26T01:20:13.913Z,29.4790
2023-03-26T01:20:24.973Z,29.4900
2023-03-26T01:20:36.045Z,29.5100
2023-03-26T01:20:47.103Z,29.5000
2023-03-26T01:20:58.130Z,29.5020
2023-03-26T01:21:09.191Z,29.4900
2023-03-26T01:21:20.254Z,29.4820
2023-03-26T01:21:31.301Z,29.4780
2023-03-26T01:21:42.342Z,29.4620
2023-03-26T01:21:53.396Z,29.4620
2023-03-26T01:22:04.452Z,29.4710
2023-03-26T01:22:15.505Z,29.4590
2023-03-26T01:22:26.556Z,29.4790
2023-03-26T01:22:37.633Z,29.4790
2023-03-26T01:22:48.697Z,29.4740
2023-03-26T01:22:59.774Z,29.4630
2023-03-26T01:23:10.825Z,29.4740
2023-03-26T01:23:21.874Z,29.4850
2023-03-26T01:23:32.931Z,29.4650
2023-03-26T01:23:43.971Z,29.4710
2023-03-26T01:23:55.036Z,29.4590
2023-03-26T01:24:06.123Z,29.4630
2023-03-26T01:24:17.160Z,29.4630
2023-03-26T01:24:28.205Z,29.4630
2023-03-26T01:24:39.262Z,29.4590
2023-03-26T01:24:50.316Z,29.4650
2023-03-26T01:25:01.380Z,29.4510
2023-03-26T01:25:12.409Z,29.4460
2023-03-26T01:25:23.461Z,29.4340
2023-03-26T01:25:34.533Z,29.4390
2023-03-26T01:25:45.597Z,29.4510
2023-03-26T01:25:56.773Z,29.4460
2023-03-26T01:26:07.896Z,29.4620
2023-03-26T01:26:18.976Z,29.4650
2023-03-26T01:26:30.009Z,29.4540
2023-03-26T01:26:41.080Z,29.4650
2023-03-26T01:26:52.208Z,29.4650
2023-03-26T01:27:03.249Z,29.4770
2023-03-26T01:27:14.314Z,29.4710
2023-03-26T01:27:25.384Z,29.4770
2023-03-26T01:27:36.456Z,29.4820
2023-03-26T01:27:47.499Z,29.4680
2023-03-26T01:27:58.561Z,29.4680
2023-03-26T01:28:09.614Z,29.4470
2023-03-26T01:28:20.667Z,29.4370
2023-03-26T01:28:31.739Z,29.4070
2023-03-26T01:28:42.800Z,29.4070
2023-03-26T01:28:53.822Z,29.3850
2023-03-26T01:29:04.914Z,29.3650
2023-03-26T01:29:15.982Z,29.3710
2023-03-26T01:29:27.032Z,29.3710
2023-03-26T01:29:38.082Z,29.3690
2023-03-26T01:29:49.141Z,29.3910
2023-03-26T01:30:00.205Z,29.3960
2023-03-26T01:30:11.294Z,29.4020
2023-03-26T01:30:22.381Z,29.4120
2023-03-26T01:30:33.449Z,29.4070
2023-03-26T01:30:44.495Z,29.3960
2023-03-26T01:30:55.573Z,29.4030
2023-03-26T01:31:06.600Z,29.4140
2023-03-26T01:31:17.666Z,29.4200
2023-03-26T01:31:28.734Z,29.4080
2023-03-26T01:31:39.787Z,29.4200
2023-03-26T01:31:50.846Z,29.4280
2023-03-26T01:32:01.904Z,29.4390
2023-03-26T01:32:13.002Z,29.4460
2023-03-26T01:32:24.230Z,29.4460
2023-03-26T01:32:35.456Z,29.4570
2023-03-26T01:32:46.758Z,29.4460
2023-03-26T01:32:58.181Z,29.4480
2023-03-26T01:33:09.453Z,29.4880
2023-03-26T01:33:20.611Z,29.4710
2023-03-26T01:33:31.725Z,29.4580
2023-03-26T01:33:42.857Z,29.4740
2023-03-26T01:33:53.929Z,29.4790
2023-03-26T01:34:04.995Z,29.4840
2023-03-26T01:34:16.041Z,29.4840
2023-03-26T01:34:27.108Z,29.4840
2023-03-26T01:34:38.166Z,29.4840
2023-03-26T01:34:49.215Z,29.4900
2023-03-26T01:35:00.260Z,29.4840
2023-03-26T01:35:11.303Z,29.4960
2023-03-26T01:35:22.376Z,29.4850
2023-03-26T01:35:33.422Z,29.4740
2023-03-26T01:35:44.508Z,29.4790
2023-03-26T01:35:55.714Z,29.4770
2023-03-26T01:36:06.911Z,29.4680
2023-03-26T01:36:17.984Z,29.4510
2023-03-26T01:36:29.012Z,29.4420
2023-03-26T01:36:40.082Z,29.4260
2023-03-26T01:36:51.142Z,29.4070
2023-03-26T01:37:02.182Z,29.4020
2023-03-26T01:37:13.284Z,29.3910
2023-03-26T01:37:24.294Z,29.3910
2023-03-26T01:37:35.359Z,29.3960
2023-03-26T01:37:46.447Z,29.3750
2023-03-26T01:37:57.511Z,29.3800
2023-03-26T01:38:08.567Z,29.3800
2023-03-26T01:38:19.598Z,29.3800
2023-03-26T01:38:30.655Z,29.3920
2023-03-26T01:38:41.712Z,29.3970
2023-03-26T01:38:52.785Z,29.4080
2023-03-26T01:39:03.837Z,29.4260
2023-03-26T01:39:14.925Z,29.4370
2023-03-26T01:39:25.993Z,29.4200
2023-03-26T01:39:37.055Z,29.4080
2023-03-26T01:39:48.105Z,29.4140
2023-03-26T01:39:59.160Z,29.4140
2023-03-26T01:40:10.223Z,29.3970
2023-03-26T01:40:21.278Z,29.4070
2023-03-26T01:40:32.339Z,29.3910
2023-03-26T01:40:43.385Z,29.3960
2023-03-26T01:40:54.442Z,29.3760
2023-03-26T01:41:05.505Z,29.3540
2023-03-26T01:41:16.563Z,29.3380
2023-03-26T01:41:27.620Z,29.3320
2023-03-26T01:41:38.664Z,29.3490
2023-03-26T01:41:49.704Z,29.3380
2023-03-26T01:42:00.761Z,29.3540
2023-03-26T01:42:11.792Z,29.3490
2023-03-26T01:42:22.794Z,29.3540
2023-03-26T01:42:33.857Z,29.3430
2023-03-26T01:42:44.906Z,29.3570
2023-03-26T01:42:55.967Z,29.3690
2023-03-26T01:43:07.051Z,29.3800
2023-03-26T01:43:18.102Z,29.3920
2023-03-26T01:43:29.163Z,29.3970
2023-03-26T01:43:40.219Z,29.3960
2023-03-26T01:43:51.256Z,29.4260
2023-03-26T01:44:02.325Z,29.4200
2023-03-26T01:44:13.382Z,29.4120
2023-03-26T01:44:24.481Z,29.4070
2023-03-26T01:44:35.529Z,29.3960
2023-03-26T01:44:46.564Z,29.3850
2023-03-26T01:44:57.623Z,29.4070
2023-03-26T01:45:08.669Z,29.3960
2023-03-26T01:45:19.710Z,29.3910
2023-03-26T01:45:30.765Z,29.3860
2023-03-26T01:45:41.816Z,29.3860
2023-03-26T01:45:53.109Z,29.3920
2023-03-26T01:46:04.447Z,29.4140
2023-03-26T01:46:15.540Z,29.4030
2023-03-26T01:46:26.646Z,29.3910
2023-03-26T01:46:37.795Z,29.3760
2023-03-26T01:46:48.861Z,29.3920
2023-03-26T01:46:59.930Z,29.4170
2023-03-26T01:47:10.974Z,29.4200
2023-03-26T01:47:22.074Z,29.4140
2023-03-26T01:47:33.117Z,29.3970
2023-03-26T01:47:44.203Z,29.4070
2023-03-26T01:47:55.234Z,29.3960
2023-03-26T01:48:06.308Z,29.3800
2023-03-26T01:48:17.344Z,29.3710
2023-03-26T01:48:28.382Z,29.3460
2023-03-26T01:48:39.417Z,29.3410
2023-03-26T01:48:50.512Z,29.3640
2023-03-26T01:49:01.534Z,29.3800
2023-03-26T01:49:12.580Z,29.3750
2023-03-26T01:49:23.654Z,29.3750
2023-03-26T01:49:34.727Z,29.3750
2023-03-26T01:49:45.790Z,29.3760
2023-03-26T01:49:56.851Z,29.3860
2023-03-26T01:50:07.945Z,29.3970
2023-03-26T01:50:19.005Z,29.4120
2023-03-26T01:50:30.055Z,29.4120
2023-03-26T01:50:41.106Z,29.4280
2023-03-26T01:50:52.170Z,29.4340
2023-03-26T01:51:03.235Z,29.4120
2023-03-26T01:51:14.300Z,29.4280
2023-03-26T01:51:25.336Z,29.4460
2023-03-26T01:51:36.403Z,29.4390
2023-03-26T01:51:47.460Z,29.4380
2023-03-26T01:51:58.513Z,29.4480
2023-03-26T01:52:09.536Z,29.4590
2023-03-26T01:52:20.602Z,29.4570
2023-03-26T01:52:31.653Z,29.4510
2023-03-26T01:52:42.746Z,29.4390
2023-03-26T01:52:53.820Z,29.4390
2023-03-26T01:53:04.848Z,29.4390
2023-03-26T01:53:15.910Z,29.4390
2023-03-26T01:53:26.992Z,29.4280
2023-03-26T01:53:38.048Z,29.4280
2023-03-26T01:53:49.097Z,29.4280
2023-03-26T01:54:00.160Z,29.4340
2023-03-26T01:54:11.214Z,29.4370
2023-03-26T01:54:22.255Z,29.4310
2023-03-26T01:54:33.375Z,29.4180
2023-03-26T01:54:44.420Z,29.3910
2023-03-26T01:54:55.488Z,29.3910
2023-03-26T01:55:06.515Z,29.4070
2023-03-26T01:55:17.575Z,29.3850
2023-03-26T01:55:28.645Z,29.3910
2023-03-26T01:55:39.694Z,29.3910
2023-03-26T01:55:50.745Z,29.3910
2023-03-26T01:56:01.805Z,29.3960
2023-03-26T01:56:12.887Z,29.4020
2023-03-26T01:56:23.944Z,29.3870
2023-03-26T01:56:35.047Z,29.3870
2023-03-26T01:56:46.095Z,29.3760
2023-03-26T01:56:57.204Z,29.3560
2023-03-26T01:57:08.324Z,29.3560
2023-03-26T01:57:19.383Z,29.3650
2023-03-26T01:57:30.438Z,29.3650
2023-03-26T01:57:41.487Z,29.3710
2023-03-26T01:57:52.544Z,29.3800
2023-03-26T01:58:03.600Z,29.3910
2023-03-26T01:58:14.658Z,29.3960
2023-03-26T01:58:25.712Z,29.4020
2023-03-26T01:58:36.774Z,29.3960
2023-03-26T01:58:47.827Z,29.4070
2023-03-26T01:58:58.887Z,29.4080
2023-03-26T01:59:09.939Z,29.4370
2023-03-26T01:59:21.003Z,29.4510
2023-03-26T01:59:32.054Z,29.4620
2023-03-26T01:59:43.126Z,29.4620
2023-03-26T01:59:54.177Z,29.4620
2023-03-26T02:00:05.239Z,29.4620
2023-03-26T02:00:16.260Z,29.4510
2023-03-26T02:00:27.325Z,29.4620
2023-03-26T02:00:38.340Z,29.4530
2023-03-26T02:00:49.394Z,29.4530
2023-03-26T02:01:00.469Z,29.4580
2023-03-26T02:01:11.524Z,29.4370
2023-03-26T02:01:22.615Z,29.4470
2023-03-26T02:01:33.750Z,29.4470
2023-03-26T02:01:44.954Z,29.4580
2023-03-26T02:01:56.102Z,29.4640
2023-03-26T02:02:07.269Z,29.4690
2023-03-26T02:02:18.501Z,29.4740
2023-03-26T02:02:29.830Z,29.4690
2023-03-26T02:02:41.152Z,29.4580
2023-03-26T02:02:52.535Z,29.4690
2023-03-26T02:03:03.839Z,29.4730
2023-03-26T02:03:15.054Z,29.4730
2023-03-26T02:03:26.200Z,29.4730
2023-03-26T02:03:37.667Z,29.4730
2023-03-26T02:03:48.796Z,29.4780
2023-03-26T02:03:59.877Z,29.4890
2023-03-26T02:04:10.939Z,29.4890
2023-03-26T02:04:21.985Z,29.4900
2023-03-26T02:04:33.105Z,29.4690
2023-03-26T02:04:44.136Z,29.4690
2023-03-26T02:04:55.184Z,29.4580
2023-03-26T02:05:06.214Z,29.4640
2023-03-26T02:05:17.277Z,29.4640
2023-03-26T02:05:28.357Z,29.4530
2023-03-26T02:05:39.392Z,29.4580
2023-03-26T02:05:50.450Z,29.4470
2023-03-26T02:06:01.515Z,29.4640
2023-03-26T02:06:12.570Z,29.4530
2023-03-26T02:06:23.643Z,29.4640
2023-03-26T02:06:34.684Z,29.4510
2023-03-26T02:06:45.731Z,29.4570
2023-03-26T02:06:56.797Z,29.4620
2023-03-26T02:07:07.839Z,29.4570
2023-03-26T02:07:18.900Z,29.4420
2023-03-26T02:07:29.944Z,29.4620
2023-03-26T02:07:41.030Z,29.4680
2023-03-26T02:07:52.083Z,29.4890
2023-03-26T02:08:03.154Z,29.5000
2023-03-26T02:08:14.198Z,29.4890
2023-03-26T02:08:25.260Z,29.4840
2023-03-26T02:08:36.355Z,29.5040
2023-03-26T02:08:47.380Z,29.4990
2023-03-26T02:08:58.436Z,29.5050
2023-03-26T02:09:09.505Z,29.5160
2023-03-26T02:09:20.574Z,29.5110
2023-03-26T02:09:31.611Z,29.4930
2023-03-26T02:09:42.682Z,29.5110
2023-03-26T02:09:53.729Z,29.5230
2023-03-26T02:10:04.772Z,29.5050
2023-03-26T02:10:15.839Z,29.4840
2023-03-26T02:10:26.897Z,29.4840
2023-03-26T02:10:37.969Z,29.4890
2023-03-26T02:10:49.054Z,29.4970
2023-03-26T02:11:00.118Z,29.4850
2023-03-26T02:11:11.372Z,29.4800
2023-03-26T02:11:23.317Z,29.5190
2023-03-26T02:11:35.934Z,29.5240
2023-03-26T02:11:47.239Z,29.5410
2023-03-26T02:11:58.305Z,29.5030
2023-03-26T02:12:09.387Z,29.4950
2023-03-26T02:12:20.474Z,29.5050
2023-03-26T02:12:31.523Z,29.5050
2023-03-26T02:12:42.549Z,29.5000
2023-03-26T02:12:53.607Z,29.4970
2023-03-26T02:13:04.675Z,29.4740
2023-03-26T02:13:15.737Z,29.4740
2023-03-26T02:13:26.789Z,29.4740
2023-03-26T02:13:37.848Z,29.4690
2023-03-26T02:13:48.903Z,29.4690
2023-03-26T02:13:59.929Z,29.4740
2023-03-26T02:14:10.984Z,29.4690
2023-03-26T02:14:22.032Z,29.4740
2023-03-26T02:14:33.085Z,29.4640
2023-03-26T02:14:44.183Z,29.4690